Fishertown, PA (15539)

12:39 PM EST on November 28, 2014 (GMT -0500)
Claysburg (Near Queen,PA) | Change Station
CLOSE
Current Station
Personal Weather Station
Location: Claysburg, PA
Elevation: 1240 ft
Nearby Weather Stations

Elev 1240 ft 40.26 °N, 78.49 °W | Updated 17 seconds ago

Overcast
Overcast
27.3 °F
Feels Like 17 °F
N
12.0
Wind Variable Wind from SW
Gusts 19.0 mph

Today
High -- | Low -- °F
--% Chance of Precip.
Yesterday
High -- | Low -- °F
Precip. -- in
7:14 AM 4:50 PM
Waxing Crescent, 42% visible
Pressure 30.30 in
Visibility 10.0 miles
Clouds Mostly Cloudy 3700 ft
Windchill 17 °F
Dew Point 17 °F
Humidity 64%
Rainfall 0.00 in
Snow Depth Not available.
UV 2 out of 12
Pollen .10 out of 12
Air Quality Not available.
Flu Activity Not available.
METAR KAOO 281653Z AUTO 26010G20KT 10SM BKN037 M04/M10 A3023 RMK AO2 SLP259 T10391100

More Conditions Fewer Conditions

Pressure 30.30 in
Visibility 10.0 miles
Clouds Mostly Cloudy 3700 ft
Windchill 17 °F
Dew Point 17 °F
Humidity 64%
Rainfall 0.00 in
Snow Depth Not available.
UV 2 out of 12
Pollen .10 out of 12
Air Quality Not available.
Flu Activity Not available.
METAR KAOO 281653Z AUTO 26010G20KT 10SM BKN037 M04/M10 A3023 RMK AO2 SLP259 T10391100

More Conditions Fewer Conditions

10-Day Weather Forecast

Almanac

Astronomy

Nov. 28, 2014 Rise Set
Actual Time
Civil Twilight
Nautical Twilight
Astronomical Twilight
Moon
Length of Visible Light
Length of Day
Tomorrow will be .
, % of the Moon is Illuminated

Today's Extremes

State Highs State Lows

Community

WunderPhotos

Upload Photos

1,774,244 photos uploaded!

WunderBlogs® & News

Nearby

Air Quality

  Air Quality AQ Index Pollutant
Not available.

Snow Depth

Station Depth Elevation

Earthquake Activity

City Distance Mag. Time & Date
Minimum magnitude displayed is 2.5.

Coastal Water Temperatures

Place Temperature

Nearby Weather Stations